Time;durP1;ratioP1;P1;durP2;ratioP2;P2;SDS_P1;SDS_P2;PMS_P1;PMS_P2;Temp;Humidity;BMP_temperature;BMP_pressure;BME280_temperature;BME280_humidity;BME280_pressure;Samples;Min_cycle;Max_cycle;Signal;HPM_P1;HPM_P2
2023/05/28 00:00:56;;;;;;;9.50;6.97;;;11.40;1.00;;;;;;5119340;28;20514;-60
2023/05/28 00:03:24;;;;;;;11.47;7.10;;;11.30;1.00;;;;;;5119068;28;20467;-59
2023/05/28 00:05:52;;;;;;;10.40;7.40;;;11.30;1.00;;;;;;5118829;28;20471;-60
2023/05/28 00:08:21;;;;;;;13.50;7.60;;;11.30;1.00;;;;;;5118536;28;20526;-60
2023/05/28 00:10:48;;;;;;;11.17;7.37;;;11.20;1.00;;;;;;5118247;28;20460;-60
2023/05/28 00:13:17;;;;;;;10.77;7.00;;;11.20;1.00;;;;;;5118118;28;20470;-60
2023/05/28 00:15:44;;;;;;;8.70;7.53;;;11.10;1.00;;;;;;5118577;28;20434;-60
2023/05/28 00:18:14;;;;;;;11.77;6.10;;;11.00;1.00;;;;;;5118581;28;20459;-60
2023/05/28 00:20:41;;;;;;;9.00;6.70;;;11.00;1.00;;;;;;5118680;28;20544;-60
2023/05/28 00:23:09;;;;;;;9.17;6.83;;;11.10;1.00;;;;;;5118277;28;20502;-59
2023/05/28 00:25:37;;;;;;;7.93;6.90;;;11.00;1.00;;;;;;5118658;28;20889;-60
2023/05/28 00:28:04;;;;;;;13.07;6.67;;;11.00;1.00;;;;;;5117699;28;20491;-60
2023/05/28 00:30:32;;;;;;;8.47;6.73;;;10.90;1.00;;;;;;5118084;28;20546;-60
2023/05/28 00:32:59;;;;;;;7.87;6.13;;;10.90;1.00;;;;;;5118188;28;20967;-60
2023/05/28 00:35:26;;;;;;;8.67;6.13;;;10.90;1.00;;;;;;5118050;28;20948;-60
2023/05/28 00:37:53;;;;;;;10.67;6.73;;;10.90;1.00;;;;;;5118240;28;20503;-60
2023/05/28 00:40:21;;;;;;;8.63;6.50;;;10.80;1.00;;;;;;5117833;28;20502;-60
2023/05/28 00:42:51;;;;;;;10.93;6.93;;;10.70;1.00;;;;;;5117852;28;20769;-60
2023/05/28 00:45:18;;;;;;;13.30;6.40;;;10.60;5.60;;;;;;5118070;28;20460;-60
2023/05/28 00:47:46;;;;;;;10.57;6.50;;;10.60;46.70;;;;;;5117444;28;20480;-60
2023/05/28 00:50:16;;;;;;;9.43;6.57;;;10.50;93.50;;;;;;5118186;27;20536;-60
2023/05/28 00:52:46;;;;;;;10.90;7.20;;;10.50;99.90;;;;;;5118393;28;20488;-60
2023/05/28 00:55:16;;;;;;;8.60;7.40;;;10.50;45.20;;;;;;5117821;28;20574;-60
2023/05/28 00:57:43;;;;;;;10.23;7.10;;;10.60;1.00;;;;;;5117969;28;20455;-59
2023/05/28 01:00:13;;;;;;;12.77;7.47;;;10.50;1.00;;;;;;5117853;28;20463;-60
2023/05/28 01:02:41;;;;;;;7.97;7.00;;;10.50;1.00;;;;;;5117071;28;20483;-60
2023/05/28 01:05:09;;;;;;;12.63;7.13;;;10.40;18.40;;;;;;5117467;28;20495;-60
2023/05/28 01:07:37;;;;;;;8.57;7.20;;;10.40;1.00;;;;;;5117774;28;20461;-60
2023/05/28 01:10:06;;;;;;;9.60;7.70;;;10.40;37.70;;;;;;5117823;28;20812;-59
2023/05/28 01:12:35;;;;;;;11.20;7.87;;;10.30;6.90;;;;;;5118050;28;20459;-60
2023/05/28 01:15:02;;;;;;;9.90;6.77;;;10.30;41.00;;;;;;5117362;28;20495;-60
2023/05/28 01:17:31;;;;;;;9.87;6.87;;;10.30;1.00;;;;;;5115873;28;20487;-60
2023/05/28 01:20:05;;;;;;;9.10;6.90;;;10.20;1.00;;;;;;5120294;28;20459;-60
2023/05/28 01:22:38;;;;;;;9.53;6.30;;;10.10;1.00;;;;;;5115668;28;20716;-60
2023/05/28 01:25:09;;;;;;;7.63;6.80;;;10.10;1.00;;;;;;5118726;28;20539;-60
2023/05/28 01:27:38;;;;;;;11.63;6.60;;;10.00;99.90;;;;;;5099737;28;20488;-60
2023/05/28 01:30:09;;;;;;;10.30;7.30;;;10.10;99.90;;;;;;5100206;28;20463;-60
2023/05/28 01:32:37;;;;;;;15.87;7.20;;;10.00;99.90;;;;;;5100564;28;20510;-60
2023/05/28 01:35:06;;;;;;;8.40;6.50;;;10.00;99.90;;;;;;5099502;28;20460;-60
2023/05/28 01:37:36;;;;;;;11.87;7.23;;;10.00;99.90;;;;;;5099430;28;20506;-60
2023/05/28 01:40:04;;;;;;;10.70;6.60;;;10.00;99.90;;;;;;5099933;28;20452;-60
2023/05/28 01:42:35;;;;;;;9.83;6.30;;;9.90;99.90;;;;;;5099481;28;20461;-60
2023/05/28 01:45:05;;;;;;;10.10;7.10;;;9.90;99.90;;;;;;5120404;27;20893;-58
2023/05/28 01:47:33;;;;;;;9.77;7.37;;;9.90;95.10;;;;;;5119832;28;20487;-59
2023/05/28 01:50:00;;;;;;;12.90;7.60;;;9.90;99.90;;;;;;5120810;28;20764;-60
2023/05/28 01:52:27;;;;;;;9.80;6.13;;;9.90;99.90;;;;;;5121536;28;20554;-60
2023/05/28 01:54:55;;;;;;;10.70;8.10;;;9.80;1.00;;;;;;5120763;28;20459;-60
2023/05/28 01:57:22;;;;;;;9.10;7.40;;;9.80;99.90;;;;;;5120794;28;20466;-60
2023/05/28 01:59:50;;;;;;;8.97;7.43;;;9.70;99.90;;;;;;5121173;28;20843;-60
2023/05/28 02:02:19;;;;;;;9.20;7.13;;;9.70;99.90;;;;;;5120646;28;20766;-60
2023/05/28 02:04:47;;;;;;;9.57;7.33;;;9.60;99.90;;;;;;5120815;28;20564;-60
2023/05/28 02:07:14;;;;;;;9.77;7.30;;;9.60;99.90;;;;;;5120608;28;20932;-60
2023/05/28 02:09:41;;;;;;;11.70;6.47;;;9.60;99.90;;;;;;5120666;28;20467;-60
2023/05/28 02:12:08;;;;;;;9.93;8.20;;;9.50;99.90;;;;;;5116716;28;20473;-60
2023/05/28 02:14:35;;;;;;;12.00;8.07;;;9.50;99.90;;;;;;5100724;28;20465;-60
2023/05/28 02:17:04;;;;;;;10.13;6.93;;;9.50;99.90;;;;;;5100188;28;20472;-60
2023/05/28 02:19:34;;;;;;;14.33;8.40;;;9.50;99.90;;;;;;5100028;28;20777;-60
2023/05/28 02:22:01;;;;;;;11.10;7.43;;;9.50;99.90;;;;;;5099656;28;20472;-60
2023/05/28 02:24:28;;;;;;;14.43;7.47;;;9.40;99.90;;;;;;5102835;28;20486;-60
2023/05/28 02:26:55;;;;;;;8.53;7.00;;;9.40;99.90;;;;;;5099980;28;20466;-60
2023/05/28 02:29:23;;;;;;;11.37;6.70;;;9.40;99.90;;;;;;5099083;28;20498;-60
2023/05/28 02:31:50;;;;;;;10.60;8.07;;;9.20;99.90;;;;;;5099983;28;20768;-60
2023/05/28 02:34:19;;;;;;;11.10;7.70;;;9.20;99.90;;;;;;5100576;28;20468;-60
2023/05/28 02:36:46;;;;;;;12.47;8.70;;;9.30;99.90;;;;;;5099654;28;20840;-60
2023/05/28 02:39:13;;;;;;;9.20;6.73;;;9.30;99.90;;;;;;5100326;28;20456;-60
2023/05/28 02:41:40;;;;;;;10.33;6.80;;;9.30;99.90;;;;;;5099935;28;20539;-59
2023/05/28 02:44:07;;;;;;;9.57;7.23;;;9.30;99.90;;;;;;5099858;28;20897;-59
2023/05/28 02:46:34;;;;;;;12.10;7.60;;;9.20;99.90;;;;;;5100121;28;20570;-60
2023/05/28 02:49:02;;;;;;;9.93;6.80;;;9.10;99.90;;;;;;5099292;28;20535;-60
2023/05/28 02:51:30;;;;;;;7.83;7.03;;;9.10;99.90;;;;;;5099517;28;20464;-60
2023/05/28 02:53:57;;;;;;;11.37;7.93;;;9.10;99.90;;;;;;5118964;28;20470;-60
2023/05/28 02:56:25;;;;;;;9.80;7.20;;;9.10;99.90;;;;;;5106349;28;20775;-60
2023/05/28 02:58:52;;;;;;;10.50;7.07;;;9.10;99.90;;;;;;5099615;28;20487;-60
2023/05/28 03:01:20;;;;;;;9.40;7.53;;;9.10;99.90;;;;;;5099114;28;20524;-60
2023/05/28 03:03:47;;;;;;;13.00;7.33;;;9.10;99.90;;;;;;5099693;28;20795;-60
2023/05/28 03:06:14;;;;;;;11.90;7.77;;;9.00;99.90;;;;;;5099037;28;20528;-60
2023/05/28 03:08:43;;;;;;;9.90;7.07;;;9.00;99.90;;;;;;5099450;28;20496;-60
2023/05/28 03:11:10;;;;;;;9.07;6.87;;;8.90;99.90;;;;;;5099194;28;20560;-60
2023/05/28 03:13:37;;;;;;;10.83;7.10;;;8.80;1.00;;;;;;5099416;28;20464;-60
2023/05/28 03:16:05;;;;;;;10.23;7.53;;;8.80;99.90;;;;;;5098804;28;20900;-60
2023/05/28 03:18:33;;;;;;;11.27;7.20;;;8.80;1.00;;;;;;5116467;28;20509;-60
2023/05/28 03:21:00;;;;;;;16.37;7.70;;;8.80;99.90;;;;;;5117869;28;20559;-60
2023/05/28 03:23:27;;;;;;;8.77;6.97;;;8.80;99.90;;;;;;5119331;28;20756;-60
2023/05/28 03:25:55;;;;;;;15.30;9.00;;;8.80;99.90;;;;;;5119354;28;20467;-60
2023/05/28 03:28:23;;;;;;;11.30;6.50;;;8.80;99.90;;;;;;5118957;28;20487;-60
2023/05/28 03:30:50;;;;;;;8.70;7.07;;;8.80;99.90;;;;;;5119288;28;20464;-60
2023/05/28 03:33:17;;;;;;;12.90;7.13;;;8.80;99.90;;;;;;5119176;28;20974;-60
2023/05/28 03:35:44;;;;;;;10.23;7.17;;;8.80;99.90;;;;;;5119330;27;20444;-60
2023/05/28 03:38:11;;;;;;;11.33;7.00;;;8.80;99.90;;;;;;5119178;28;20466;-60
2023/05/28 03:40:40;;;;;;;9.83;8.57;;;8.80;99.90;;;;;;5118961;28;20456;-60
2023/05/28 03:43:09;;;;;;;7.97;6.80;;;8.70;99.90;;;;;;5118182;28;20884;-60
2023/05/28 03:45:36;;;;;;;11.00;7.30;;;8.80;1.00;;;;;;5119024;28;20467;-60
2023/05/28 03:48:03;;;;;;;7.60;6.80;;;8.80;99.90;;;;;;5119162;28;20491;-60
2023/05/28 03:50:31;;;;;;;7.97;7.07;;;8.80;99.90;;;;;;5118935;28;20822;-60
2023/05/28 03:52:58;;;;;;;8.10;6.40;;;8.80;99.90;;;;;;5118969;28;20846;-61
2023/05/28 03:55:25;;;;;;;12.20;7.40;;;8.80;99.90;;;;;;5118913;28;20463;-60
2023/05/28 03:57:52;;;;;;;13.57;7.83;;;8.80;99.90;;;;;;5119013;28;20455;-61
2023/05/28 04:00:21;;;;;;;9.60;7.03;;;8.70;1.00;;;;;;5118791;28;20459;-61
2023/05/28 04:02:48;;;;;;;11.93;8.20;;;8.60;1.00;;;;;;5118260;28;20566;-60
2023/05/28 04:05:15;;;;;;;12.30;8.60;;;8.60;1.00;;;;;;5118537;28;20772;-61
2023/05/28 04:07:42;;;;;;;11.73;8.30;;;8.60;1.00;;;;;;5118096;28;20460;-61
2023/05/28 04:10:10;;;;;;;10.60;7.17;;;8.70;1.00;;;;;;5118685;28;20918;-61
2023/05/28 04:12:37;;;;;;;12.10;7.23;;;8.80;1.00;;;;;;5118892;28;20538;-60
2023/05/28 04:15:07;;;;;;;9.83;7.00;;;8.90;1.00;;;;;;5118311;28;20515;-60
2023/05/28 04:17:36;;;;;;;13.33;8.00;;;8.90;1.00;;;;;;5118150;28;20545;-60
2023/05/28 04:20:06;;;;;;;9.27;7.03;;;9.00;1.00;;;;;;5118530;28;20460;-60
2023/05/28 04:22:33;;;;;;;9.30;7.90;;;9.00;99.90;;;;;;5118304;28;20492;-60
2023/05/28 04:25:01;;;;;;;10.53;7.13;;;9.00;99.90;;;;;;5117856;28;20509;-60
2023/05/28 04:27:31;;;;;;;12.20;7.80;;;9.10;99.90;;;;;;5118039;28;20516;-60
2023/05/28 04:29:58;;;;;;;10.73;8.50;;;9.10;99.90;;;;;;5118262;28;20491;-61
2023/05/28 04:32:27;;;;;;;10.10;7.80;;;9.10;99.90;;;;;;5118237;28;20533;-60
2023/05/28 04:34:56;;;;;;;9.40;7.30;;;9.20;99.90;;;;;;5117965;28;20510;-61
2023/05/28 04:37:24;;;;;;;8.43;7.23;;;9.30;99.90;;;;;;5117813;28;20818;-61
2023/05/28 04:39:52;;;;;;;8.40;6.87;;;9.40;99.90;;;;;;5118038;28;20821;-60
2023/05/28 04:42:19;;;;;;;8.33;7.43;;;9.40;99.90;;;;;;5118207;28;20556;-61
2023/05/28 04:44:46;;;;;;;13.77;7.70;;;9.40;99.90;;;;;;5118223;28;20466;-61
2023/05/28 04:47:14;;;;;;;12.03;8.17;;;9.50;99.90;;;;;;5117816;28;20963;-61
2023/05/28 04:49:41;;;;;;;11.53;7.17;;;9.60;57.60;;;;;;5117595;28;20544;-61
2023/05/28 04:52:10;;;;;;;9.23;6.13;;;9.60;1.00;;;;;;5118074;28;20805;-61
2023/05/28 04:54:37;;;;;;;8.93;6.20;;;9.70;1.00;;;;;;5117874;28;20469;-59
2023/05/28 04:57:05;;;;;;;11.53;7.00;;;9.80;1.00;;;;;;5118694;28;20461;-58
2023/05/28 04:59:33;;;;;;;10.70;7.47;;;9.90;1.00;;;;;;5117383;28;20898;-59
2023/05/28 05:02:01;;;;;;;10.30;6.97;;;9.90;1.00;;;;;;5135293;27;20478;-59
2023/05/28 05:04:29;;;;;;;10.90;7.30;;;9.90;50.20;;;;;;5138470;27;20501;-59
2023/05/28 05:06:57;;;;;;;10.70;7.97;;;9.90;9.90;;;;;;5123583;27;20466;-60
2023/05/28 05:09:27;;;;;;;13.10;7.90;;;10.00;99.90;;;;;;5117750;28;20491;-59
2023/05/28 05:11:54;;;;;;;9.57;7.73;;;10.10;1.00;;;;;;5117981;28;20464;-59
2023/05/28 05:14:21;;;;;;;12.67;7.80;;;10.20;1.00;;;;;;5117752;28;20892;-60
2023/05/28 05:16:48;;;;;;;8.77;6.90;;;10.20;1.00;;;;;;5117376;28;20576;-59
2023/05/28 05:19:15;;;;;;;11.23;7.80;;;10.40;1.00;;;;;;5117672;28;20452;-59
2023/05/28 05:21:43;;;;;;;8.53;7.03;;;10.50;21.20;;;;;;5117990;28;20467;-59
2023/05/28 05:24:10;;;;;;;10.20;6.53;;;10.60;99.90;;;;;;5117628;28;20597;-59
2023/05/28 05:26:38;;;;;;;8.30;7.00;;;10.70;99.90;;;;;;5117652;28;20502;-59
2023/05/28 05:29:06;;;;;;;8.23;6.53;;;10.70;99.90;;;;;;5117045;28;20491;-59
2023/05/28 05:31:33;;;;;;;10.60;7.60;;;10.80;99.90;;;;;;5117390;28;20923;-59
2023/05/28 05:34:00;;;;;;;9.57;6.77;;;11.00;99.90;;;;;;5117351;28;20558;-59
2023/05/28 05:36:27;;;;;;;11.20;8.20;;;11.20;99.90;;;;;;5117822;28;20459;-60
2023/05/28 05:38:54;;;;;;;7.57;6.73;;;11.30;99.90;;;;;;5117368;28;20451;-60
2023/05/28 05:41:22;;;;;;;12.17;6.93;;;11.40;99.90;;;;;;5116146;28;20559;-59
2023/05/28 05:43:50;;;;;;;9.70;6.47;;;11.60;99.90;;;;;;5103984;28;20479;-60
2023/05/28 05:46:18;;;;;;;8.67;6.87;;;11.80;99.90;;;;;;5096989;28;20467;-60
2023/05/28 05:48:45;;;;;;;9.27;6.97;;;12.10;99.90;;;;;;5115189;28;20458;-60
2023/05/28 05:51:16;;;;;;;7.50;6.27;;;12.40;99.90;;;;;;5116231;28;20513;-60
2023/05/28 05:53:44;;;;;;;6.70;6.10;;;12.70;1.00;;;;;;5110047;28;20525;-60
2023/05/28 05:56:11;;;;;;;10.93;7.33;;;12.90;1.00;;;;;;5115205;28;20532;-59
2023/05/28 05:58:38;;;;;;;8.93;7.33;;;13.20;1.00;;;;;;5117631;28;20891;-59
2023/05/28 06:01:07;;;;;;;11.40;8.10;;;13.50;1.00;;;;;;5109916;28;20487;-59
2023/05/28 06:03:35;;;;;;;8.13;6.50;;;13.80;1.00;;;;;;5116842;28;20477;-59
2023/05/28 06:06:02;;;;;;;7.73;6.87;;;14.00;99.90;;;;;;5114986;28;20442;-60
2023/05/28 06:08:29;;;;;;;10.23;7.37;;;14.10;1.00;;;;;;5108409;28;20980;-60
2023/05/28 06:10:57;;;;;;;7.93;6.60;;;14.00;99.90;;;;;;5111975;28;20452;-60
2023/05/28 06:13:24;;;;;;;9.27;6.43;;;14.20;1.00;;;;;;5116774;28;20583;-60
2023/05/28 06:15:52;;;;;;;6.77;6.00;;;14.60;1.00;;;;;;5116629;28;20716;-60
2023/05/28 06:18:21;;;;;;;8.17;6.37;;;15.00;1.00;;;;;;5119865;28;20546;-59
2023/05/28 06:20:49;;;;;;;8.70;6.20;;;15.30;1.00;;;;;;5120119;28;20456;-60
2023/05/28 06:23:16;;;;;;;7.37;6.20;;;15.70;99.90;;;;;;5119467;28;20508;-60
2023/05/28 06:25:43;;;;;;;6.87;6.17;;;16.00;99.90;;;;;;5120451;28;20509;-59
2023/05/28 06:28:11;;;;;;;7.57;6.43;;;16.20;99.90;;;;;;5121056;28;20941;-59
2023/05/28 06:30:38;;;;;;;6.73;6.10;;;16.50;96.30;;;;;;5120620;28;20935;-60
2023/05/28 06:33:05;;;;;;;8.07;6.37;;;16.80;1.00;;;;;;5119814;28;20741;-60
2023/05/28 06:35:35;;;;;;;8.70;6.23;;;17.10;1.00;;;;;;5109729;28;20521;-59
2023/05/28 06:38:03;;;;;;;9.63;6.50;;;17.40;1.00;;;;;;5109602;28;20475;-60
2023/05/28 06:40:30;;;;;;;6.53;5.70;;;17.70;1.00;;;;;;5108875;28;20908;-60
2023/05/28 06:42:59;;;;;;;9.07;5.77;;;17.80;1.00;;;;;;5116477;28;20538;-59
2023/05/28 06:45:26;;;;;;;10.23;6.27;;;18.00;1.00;;;;;;5120376;28;20979;-60
2023/05/28 06:47:53;;;;;;;7.53;6.03;;;18.30;1.00;;;;;;5118476;28;20458;-59
2023/05/28 06:50:21;;;;;;;9.47;6.47;;;18.50;1.00;;;;;;5117933;28;20523;-60
2023/05/28 06:52:50;;;;;;;6.87;6.03;;;18.80;1.00;;;;;;5113245;28;20451;-60
2023/05/28 06:55:17;;;;;;;7.23;5.30;;;19.00;99.90;;;;;;5118463;28;20509;-60
2023/05/28 06:57:45;;;;;;;7.53;6.50;;;19.10;99.90;;;;;;5118719;28;20552;-60
2023/05/28 07:00:16;;;;;;;6.40;5.50;;;19.50;99.90;;;;;;5118495;28;20451;-60
2023/05/28 07:02:45;;;;;;;8.10;5.47;;;19.80;99.90;;;;;;5119351;27;20867;-59
2023/05/28 07:05:12;;;;;;;6.13;5.53;;;19.90;99.90;;;;;;5119849;28;20463;-59
2023/05/28 07:07:39;;;;;;;8.03;5.53;;;20.20;99.90;;;;;;5119752;28;20459;-59
2023/05/28 07:10:09;;;;;;;6.63;5.60;;;20.30;99.90;;;;;;5120059;28;20574;-59
2023/05/28 07:12:37;;;;;;;6.57;5.40;;;20.60;99.90;;;;;;5120217;28;20466;-60
2023/05/28 07:15:06;;;;;;;7.60;5.40;;;20.60;99.90;;;;;;5119331;28;20487;-62
2023/05/28 07:17:33;;;;;;;7.43;6.00;;;20.30;95.90;;;;;;5117429;28;20486;-61
2023/05/28 07:20:00;;;;;;;5.87;5.27;;;20.40;55.90;;;;;;5118439;28;20554;-60
2023/05/28 07:22:27;;;;;;;7.83;5.07;;;20.80;94.70;;;;;;5116334;28;20447;-60
2023/05/28 07:24:55;;;;;;;7.30;5.00;;;21.20;69.60;;;;;;5116308;28;20458;-59
2023/05/28 07:27:23;;;;;;;6.03;5.30;;;21.50;47.90;;;;;;5117625;28;20555;-59
2023/05/28 07:29:50;;;;;;;5.47;4.97;;;21.50;1.00;;;;;;5118657;28;20497;-59
2023/05/28 07:32:18;;;;;;;6.83;5.60;;;21.20;1.00;;;;;;5119531;28;20558;-60
2023/05/28 07:34:45;;;;;;;5.33;4.43;;;21.40;1.00;;;;;;5119557;28;20864;-60
2023/05/28 07:37:12;;;;;;;8.80;5.47;;;21.40;1.00;;;;;;5118368;28;20719;-61
2023/05/28 07:39:39;;;;;;;6.97;5.20;;;21.60;1.00;;;;;;5117025;28;20462;-60
2023/05/28 07:42:07;;;;;;;6.67;5.70;;;21.70;1.00;;;;;;5117407;28;20513;-62
2023/05/28 07:44:36;;;;;;;7.10;5.20;;;21.80;1.00;;;;;;5117548;28;20459;-60
2023/05/28 07:47:03;;;;;;;6.03;5.43;;;22.20;1.00;;;;;;5116549;28;20896;-60
2023/05/28 07:49:30;;;;;;;7.23;5.70;;;22.40;1.00;;;;;;5116052;28;21059;-60
2023/05/28 07:51:58;;;;;;;7.40;5.27;;;22.50;1.00;;;;;;5115864;28;20879;-60
2023/05/28 07:54:25;;;;;;;7.73;5.70;;;22.70;1.00;;;;;;5117121;28;20463;-60
2023/05/28 07:56:52;;;;;;;7.53;5.60;;;22.80;1.00;;;;;;5115701;28;20459;-60
2023/05/28 07:59:21;;;;;;;5.87;4.90;;;22.70;1.00;;;;;;5116850;28;20450;-60
2023/05/28 08:01:49;;;;;;;5.77;5.17;;;22.80;1.00;;;;;;5116479;28;20801;-61
2023/05/28 08:04:17;;;;;;;7.17;5.13;;;22.70;1.00;;;;;;5117580;28;20512;-59
2023/05/28 08:06:44;;;;;;;5.57;4.97;;;22.70;1.00;;;;;;5117077;28;20466;-60
2023/05/28 08:09:11;;;;;;;6.23;5.63;;;22.80;1.00;;;;;;5113005;28;20546;-59
2023/05/28 08:11:38;;;;;;;9.30;5.23;;;23.10;1.00;;;;;;5115259;28;20778;-59
2023/05/28 08:14:06;;;;;;;6.90;5.87;;;23.40;1.00;;;;;;5115333;28;20499;-60
2023/05/28 08:16:33;;;;;;;6.80;5.80;;;23.50;1.00;;;;;;5115815;28;20463;-60
2023/05/28 08:19:01;;;;;;;7.43;5.30;;;23.40;1.00;;;;;;5115729;28;20698;-60
2023/05/28 08:21:28;;;;;;;5.80;4.90;;;23.40;1.00;;;;;;5115552;28;20487;-59
2023/05/28 08:23:56;;;;;;;7.30;5.37;;;23.30;1.00;;;;;;5116789;28;20550;-60
2023/05/28 08:26:23;;;;;;;7.80;5.70;;;23.30;1.00;;;;;;5117499;28;20546;-60
2023/05/28 08:28:50;;;;;;;5.73;5.20;;;23.30;1.00;;;;;;5117590;28;20528;-61
2023/05/28 08:31:17;;;;;;;8.67;5.20;;;23.40;1.00;;;;;;5118301;28;20495;-59
2023/05/28 08:33:45;;;;;;;5.17;4.57;;;23.50;1.00;;;;;;5118311;28;20563;-59
2023/05/28 08:36:13;;;;;;;5.30;4.80;;;23.70;1.00;;;;;;5118183;28;20459;-59
2023/05/28 08:38:40;;;;;;;6.07;5.20;;;23.90;1.00;;;;;;5118643;28;20963;-58
2023/05/28 08:41:09;;;;;;;8.03;5.70;;;24.00;1.00;;;;;;5119276;28;20543;-61
2023/05/28 08:43:36;;;;;;;7.70;5.67;;;23.70;1.00;;;;;;5117998;27;20470;-60
2023/05/28 08:46:03;;;;;;;7.00;5.20;;;23.80;1.00;;;;;;5118537;28;20955;-59
2023/05/28 08:48:34;;;;;;;6.43;5.30;;;24.20;1.00;;;;;;5117904;28;20761;-59
2023/05/28 08:51:03;;;;;;;6.77;4.80;;;24.40;1.00;;;;;;5117751;28;20923;-59
2023/05/28 08:53:39;;;;;;;7.60;5.37;;;24.60;99.90;;;;;;5117932;28;20520;-59
2023/05/28 08:56:08;;;;;;;8.73;5.87;;;25.00;99.90;;;;;;5118445;28;20465;-59
2023/05/28 08:58:38;;;;;;;6.80;5.50;;;25.30;99.90;;;;;;5117628;28;20521;-59
2023/05/28 09:01:07;;;;;;;5.93;5.37;;;25.50;99.90;;;;;;5117629;28;20566;-59
2023/05/28 09:03:34;;;;;;;6.00;5.17;;;25.30;99.90;;;;;;5117308;28;20463;-60
2023/05/28 09:06:03;;;;;;;7.33;5.80;;;25.00;99.90;;;;;;5118062;28;20467;-59
2023/05/28 09:08:31;;;;;;;6.97;5.33;;;24.90;99.90;;;;;;5117782;28;20464;-60
2023/05/28 09:11:09;;;;;;;5.53;5.03;;;24.90;99.90;;;;;;5116094;28;20534;-59
2023/05/28 09:13:36;;;;;;;7.00;4.73;;;24.80;99.90;;;;;;5115948;28;20451;-59
2023/05/28 09:16:06;;;;;;;6.83;5.27;;;24.60;99.90;;;;;;5115583;28;20839;-60
2023/05/28 09:18:33;;;;;;;8.13;5.40;;;24.60;99.90;;;;;;5114951;28;20492;-59
2023/05/28 09:21:01;;;;;;;7.00;5.23;;;24.90;99.90;;;;;;5117141;28;20829;-59
2023/05/28 09:23:31;;;;;;;5.37;4.87;;;25.30;99.90;;;;;;5117685;28;20508;-59
2023/05/28 09:26:00;;;;;;;6.60;5.37;;;25.30;99.90;;;;;;5117972;28;20883;-59
2023/05/28 09:28:28;;;;;;;6.27;5.37;;;25.30;99.90;;;;;;5118004;28;20460;-60
2023/05/28 09:31:03;;;;;;;5.93;5.30;;;25.20;99.90;;;;;;5117432;28;20498;-59
2023/05/28 09:33:30;;;;;;;6.90;4.90;;;25.60;99.90;;;;;;5117832;28;20767;-59
2023/05/28 09:36:01;;;;;;;6.00;5.27;;;25.70;99.90;;;;;;5115645;28;20559;-59
2023/05/28 09:38:38;;;;;;;6.93;5.50;;;26.00;99.90;;;;;;5109527;28;20954;-59
2023/05/28 09:41:05;;;;;;;6.60;4.30;;;25.60;99.90;;;;;;5120789;28;20888;-60
2023/05/28 09:43:32;;;;;;;5.53;5.00;;;25.60;99.90;;;;;;5101406;28;20479;-60
2023/05/28 09:46:08;;;;;;;8.33;6.00;;;25.70;99.90;;;;;;5100152;28;20732;-59
2023/05/28 09:48:35;;;;;;;6.27;4.70;;;25.80;99.90;;;;;;5100228;28;20460;-59
2023/05/28 09:51:05;;;;;;;4.87;4.40;;;25.90;99.90;;;;;;5099806;28;20518;-61
2023/05/28 09:53:36;;;;;;;6.63;4.60;;;25.70;99.90;;;;;;5100888;28;20467;-59
2023/05/28 09:56:05;;;;;;;8.00;4.77;;;25.70;99.90;;;;;;5101034;28;20901;-60
2023/05/28 09:58:34;;;;;;;6.67;5.00;;;25.40;99.90;;;;;;5100958;28;20455;-59
2023/05/28 10:01:08;;;;;;;7.23;4.60;;;25.80;99.90;;;;;;5100065;28;20488;-59
2023/05/28 10:03:40;;;;;;;5.93;4.77;;;26.40;99.90;;;;;;5114977;28;20538;-59
2023/05/28 10:06:15;;;;;;;5.90;4.23;;;27.00;99.90;;;;;;5120954;28;20463;-59
2023/05/28 10:08:47;;;;;;;6.50;4.60;;;27.00;99.90;;;;;;5121183;28;20549;-59
2023/05/28 10:11:17;;;;;;;5.77;4.63;;;26.60;99.90;;;;;;5121454;28;20465;-57
2023/05/28 10:13:45;;;;;;;9.20;4.73;;;27.00;99.90;;;;;;5121081;28;20512;-56
2023/05/28 10:16:13;;;;;;;7.23;4.60;;;26.90;99.90;;;;;;5121263;28;20829;-56
2023/05/28 10:18:42;;;;;;;6.23;4.60;;;27.00;99.90;;;;;;5121300;28;20513;-57
2023/05/28 10:21:12;;;;;;;5.70;4.33;;;27.20;1.00;;;;;;5120773;28;20463;-57
2023/05/28 10:23:41;;;;;;;6.40;4.80;;;25.80;99.90;;;;;;5121003;27;20880;-57
2023/05/28 10:26:10;;;;;;;4.50;4.10;;;25.20;99.90;;;;;;5119318;28;20557;-57
2023/05/28 10:28:37;;;;;;;4.20;3.80;;;26.40;99.90;;;;;;5119147;27;20459;-58
2023/05/28 10:31:06;;;;;;;6.73;4.67;;;27.20;99.90;;;;;;5118675;28;20491;-57
2023/05/28 10:33:38;;;;;;;6.57;4.47;;;26.80;99.90;;;;;;5118892;28;20502;-57
2023/05/28 10:36:09;;;;;;;4.17;3.60;;;27.50;99.90;;;;;;5119060;28;20504;-57
2023/05/28 10:38:44;;;;;;;5.83;4.47;;;26.90;99.90;;;;;;5119063;28;20463;-57
2023/05/28 10:41:19;;;;;;;4.50;4.10;;;26.50;99.90;;;;;;5119979;28;20450;-59
2023/05/28 10:43:47;;;;;;;5.83;4.90;;;27.10;99.90;;;;;;5120439;28;20931;-58
2023/05/28 10:46:19;;;;;;;5.80;4.67;;;27.00;99.90;;;;;;5119532;28;20896;-58
2023/05/28 10:49:08;;;;;;;5.10;4.53;;;27.10;99.90;;;;;;5114038;28;20583;-57
2023/05/28 10:51:47;;;;;;;5.20;4.70;;;27.30;99.90;;;;;;5096466;28;20626;-59
2023/05/28 10:54:22;;;;;;;5.07;4.57;;;27.90;99.90;;;;;;5097486;28;20766;-59
2023/05/28 10:57:10;;;;;;;7.13;4.80;;;28.30;99.90;;;;;;5097417;28;20948;-59
2023/05/28 10:59:39;;;;;;;4.90;4.40;;;28.00;99.90;;;;;;5097320;28;20936;-59
2023/05/28 11:02:08;;;;;;;6.37;4.70;;;28.00;99.90;;;;;;5102871;28;20487;-59
2023/05/28 11:04:35;;;;;;;4.30;3.90;;;28.50;99.90;;;;;;5109038;27;20472;-60
2023/05/28 11:07:03;;;;;;;4.97;4.47;;;28.40;99.90;;;;;;5109231;28;20522;-60
2023/05/28 11:09:30;;;;;;;5.20;4.40;;;27.30;99.90;;;;;;5113335;27;20467;-60
2023/05/28 11:12:01;;;;;;;4.20;3.87;;;27.00;99.90;;;;;;5114074;27;20959;-60
2023/05/28 11:14:36;;;;;;;8.67;4.20;;;27.70;99.90;;;;;;5105947;28;20472;-57
2023/05/28 11:17:07;;;;;;;5.07;4.27;;;28.10;99.90;;;;;;5112610;28;20467;-57
2023/05/28 11:19:40;;;;;;;5.13;4.63;;;28.30;99.90;;;;;;5115544;28;20463;-59
2023/05/28 11:22:07;;;;;;;5.40;4.33;;;28.70;99.90;;;;;;5116181;28;20498;-60
2023/05/28 11:24:58;;;;;;;4.97;4.10;;;28.70;99.90;;;;;;5116854;28;20452;-59
2023/05/28 11:27:26;;;;;;;4.80;4.30;;;28.50;99.90;;;;;;5117411;28;20495;-60
2023/05/28 11:29:57;;;;;;;4.83;4.43;;;28.40;99.90;;;;;;5117288;28;20459;-59
2023/05/28 11:32:25;;;;;;;6.80;4.37;;;28.40;99.90;;;;;;5117666;28;20803;-60
2023/05/28 11:34:54;;;;;;;5.03;4.40;;;28.20;99.90;;;;;;5119392;28;20473;-59
2023/05/28 11:37:26;;;;;;;4.33;3.97;;;28.10;99.90;;;;;;5118975;28;20512;-59
2023/05/28 11:39:55;;;;;;;5.60;4.20;;;28.70;99.90;;;;;;5118882;28;20459;-59
2023/05/28 11:42:25;;;;;;;7.83;4.40;;;29.10;99.90;;;;;;5119186;27;20801;-59
2023/05/28 11:44:52;;;;;;;5.90;4.90;;;29.20;99.90;;;;;;5118954;28;20502;-60
2023/05/28 11:47:22;;;;;;;5.63;4.70;;;29.50;1.00;;;;;;5119320;28;20470;-57
2023/05/28 11:49:51;;;;;;;5.23;4.83;;;28.80;99.90;;;;;;5119329;28;20557;-57
2023/05/28 11:52:20;;;;;;;5.17;4.67;;;28.70;99.90;;;;;;5119411;28;20927;-56
2023/05/28 11:54:53;;;;;;;5.00;4.20;;;29.10;99.90;;;;;;5116903;28;20495;-57
2023/05/28 11:57:26;;;;;;;5.90;4.80;;;28.60;7.30;;;;;;5118550;28;20490;-57
2023/05/28 11:59:59;;;;;;;4.70;4.20;;;28.60;99.90;;;;;;5118029;28;20463;-56
2023/05/28 12:02:28;;;;;;;5.10;4.60;;;29.20;99.90;;;;;;5115577;28;20506;-57
2023/05/28 12:04:57;;;;;;;5.67;4.33;;;29.20;99.90;;;;;;5117467;28;20597;-57
2023/05/28 12:07:29;;;;;;;6.53;4.03;;;28.70;99.90;;;;;;5117786;28;20542;-56
2023/05/28 12:10:07;;;;;;;4.93;3.93;;;28.60;99.90;;;;;;5117757;28;20430;-57
2023/05/28 12:12:34;;;;;;;5.83;3.90;;;28.50;99.90;;;;;;5118008;28;20585;-57
2023/05/28 12:15:04;;;;;;;4.70;4.17;;;28.40;99.90;;;;;;5117786;28;20438;-57
2023/05/28 12:17:37;;;;;;;5.50;4.37;;;28.70;99.90;;;;;;5117202;28;20460;-58
2023/05/28 12:20:07;;;;;;;5.43;4.10;;;28.90;99.90;;;;;;5118544;28;20861;-57
2023/05/28 12:22:35;;;;;;;5.70;3.90;;;29.10;99.90;;;;;;5117470;28;20512;-56
2023/05/28 12:25:05;;;;;;;4.90;4.43;;;28.70;99.90;;;;;;5110500;28;20555;-60
2023/05/28 12:27:34;;;;;;;4.73;4.03;;;29.20;99.90;;;;;;5111761;27;20468;-61
2023/05/28 12:30:01;;;;;;;5.50;4.37;;;29.50;99.90;;;;;;5117515;28;20768;-57
2023/05/28 12:32:28;;;;;;;5.17;4.40;;;30.00;99.90;;;;;;5117817;28;20528;-56
2023/05/28 12:34:57;;;;;;;5.17;3.97;;;30.00;99.90;;;;;;5117585;28;20714;-57
2023/05/28 12:37:25;;;;;;;4.63;3.63;;;30.00;99.90;;;;;;5117326;28;20755;-57
2023/05/28 12:39:52;;;;;;;5.10;3.90;;;30.20;99.90;;;;;;5116461;27;20467;-57
2023/05/28 12:42:20;;;;;;;4.13;3.73;;;30.20;99.90;;;;;;5112369;28;20502;-57
2023/05/28 12:44:47;;;;;;;3.87;3.47;;;29.70;99.90;;;;;;5116121;28;20459;-57
2023/05/28 12:47:15;;;;;;;5.90;4.90;;;29.20;99.90;;;;;;5115771;28;20459;-59
2023/05/28 12:49:42;;;;;;;6.10;4.63;;;29.50;99.90;;;;;;5116233;28;20586;-58
2023/05/28 12:52:11;;;;;;;5.37;4.97;;;29.90;99.90;;;;;;5115408;28;20482;-58
2023/05/28 12:54:40;;;;;;;4.90;4.40;;;30.30;99.90;;;;;;5105928;27;20513;-57
2023/05/28 12:57:07;;;;;;;4.80;3.60;;;28.80;99.90;;;;;;5107522;27;20466;-58